Aviation Digital Data Service (ADDS)

Output produced by METARs form (1035 UTC 17 June 2019)
found at http://www.aviationweather.gov/metar/data/
 
METAR text: KLAX 170959Z COR 25004KT 10SM FEW012 OVC018 17/14 A2986 RMK AO2 T01670139
Conditions at: KLAX (LOS ANGELES , CA, US) observed 0959 UTC 17 June 2019
Temperature: 16.7°C (62°F)
Dewpoint: 13.9°C (57°F) [RH = 84%]
Pressure (altimeter): 29.86 inches Hg (1011.3 mb)
Winds: from the WSW (250 degrees) at 5 MPH (4 knots; 2.1 m/s)
Visibility: 10 or more miles (16+ km)
Ceiling: 1800 feet AGL
Clouds: few clouds at 1200 feet AGL
overcast cloud deck at 1800 feet AGL
Weather: no significant weather observed at this time

METAR text: KLAX 170953Z 24005KT 10SM BKN012 OVC017 17/14 A2986 RMK AO2 SLP108 T01670139
Conditions at: KLAX (LOS ANGELES , CA, US) observed 0953 UTC 17 June 2019
Temperature: 16.7°C (62°F)
Dewpoint: 13.9°C (57°F) [RH = 84%]
Pressure (altimeter): 29.86 inches Hg (1011.3 mb)
[Sea-level pressure: 1010.8 mb]
Winds: from the WSW (240 degrees) at 6 MPH (5 knots; 2.6 m/s)
Visibility: 10 or more miles (16+ km)
Ceiling: 1200 feet AGL
Clouds: broken clouds at 1200 feet AGL
overcast cloud deck at 1700 feet AGL
Weather: no significant weather observed at this time

METAR text: KLAX 170853Z 25004KT 9SM BKN012 OVC016 17/14 A2987 RMK AO2 SLP112 T01670139 58006
Conditions at: KLAX (LOS ANGELES , CA, US) observed 0853 UTC 17 June 2019
Temperature: 16.7°C (62°F)
Dewpoint: 13.9°C (57°F) [RH = 84%]
Pressure (altimeter): 29.87 inches Hg (1011.6 mb)
[Sea-level pressure: 1011.2 mb]
Winds: from the WSW (250 degrees) at 5 MPH (4 knots; 2.1 m/s)
Visibility: 9 miles (14 km)
Ceiling: 1200 feet AGL
Clouds: broken clouds at 1200 feet AGL
overcast cloud deck at 1600 feet AGL
Weather: no significant weather observed at this time

METAR text: KLAX 170824Z 25005KT 10SM BKN012 OVC017 17/14 A2988 RMK AO2 T01670139
Conditions at: KLAX (LOS ANGELES , CA, US) observed 0824 UTC 17 June 2019
Temperature: 16.7°C (62°F)
Dewpoint: 13.9°C (57°F) [RH = 84%]
Pressure (altimeter): 29.88 inches Hg (1011.9 mb)
Winds: from the WSW (250 degrees) at 6 MPH (5 knots; 2.6 m/s)
Visibility: 10 or more miles (16+ km)
Ceiling: 1200 feet AGL
Clouds: broken clouds at 1200 feet AGL
overcast cloud deck at 1700 feet AGL
Weather: no significant weather observed at this time

METAR text: KLAX 170753Z 25007KT 10SM OVC016 17/14 A2988 RMK AO2 SLP116 T01720139 402110172
Conditions at: KLAX (LOS ANGELES , CA, US) observed 0753 UTC 17 June 2019
Temperature: 17.2°C (63°F)
Dewpoint: 13.9°C (57°F) [RH = 81%]
Pressure (altimeter): 29.88 inches Hg (1011.9 mb)
[Sea-level pressure: 1011.6 mb]
Winds: from the WSW (250 degrees) at 8 MPH (7 knots; 3.6 m/s)
Visibility: 10 or more miles (16+ km)
Ceiling: 1600 feet AGL
Clouds: overcast cloud deck at 1600 feet AGL
Weather: no significant weather observed at this time

METAR text: KLAX 170653Z 24007KT 10SM OVC016 17/13 A2989 RMK AO2 SLP119 T01720133
Conditions at: KLAX (LOS ANGELES , CA, US) observed 0653 UTC 17 June 2019
Temperature: 17.2°C (63°F)
Dewpoint: 13.3°C (56°F) [RH = 78%]
Pressure (altimeter): 29.89 inches Hg (1012.3 mb)
[Sea-level pressure: 1011.9 mb]
Winds: from the WSW (240 degrees) at 8 MPH (7 knots; 3.6 m/s)
Visibility: 10 or more miles (16+ km)
Ceiling: 1600 feet AGL
Clouds: overcast cloud deck at 1600 feet AGL
Weather: no significant weather observed at this time

METAR text: KLAX 170553Z 24004KT 10SM OVC017 17/13 A2989 RMK AO2 SLP119 T01720133 10189 20172 51007
Conditions at: KLAX (LOS ANGELES , CA, US) observed 0553 UTC 17 June 2019
Temperature: 17.2°C (63°F)
Dewpoint: 13.3°C (56°F) [RH = 78%]
Pressure (altimeter): 29.89 inches Hg (1012.3 mb)
[Sea-level pressure: 1011.9 mb]
Winds: from the WSW (240 degrees) at 5 MPH (4 knots; 2.1 m/s)
Visibility: 10 or more miles (16+ km)
Ceiling: 1700 feet AGL
Clouds: overcast cloud deck at 1700 feet AGL
Weather: no significant weather observed at this time

METAR text: KLAX 170453Z VRB06KT 10SM OVC019 18/13 A2988 RMK AO2 SLP118 T01780133
Conditions at: KLAX (LOS ANGELES , CA, US) observed 0453 UTC 17 June 2019
Temperature: 17.8°C (64°F)
Dewpoint: 13.3°C (56°F) [RH = 75%]
Pressure (altimeter): 29.88 inches Hg (1011.9 mb)
[Sea-level pressure: 1011.8 mb]
Winds: variable direction winds at 7 MPH (6 knots; 3.1 m/s)
Visibility: 10 or more miles (16+ km)
Ceiling: 1900 feet AGL
Clouds: overcast cloud deck at 1900 feet AGL
Weather: no significant weather observed at this time

METAR text: KLAX 170353Z 25006KT 10SM OVC016 18/13 A2987 RMK AO2 SLP115 T01780133
Conditions at: KLAX (LOS ANGELES , CA, US) observed 0353 UTC 17 June 2019
Temperature: 17.8°C (64°F)
Dewpoint: 13.3°C (56°F) [RH = 75%]
Pressure (altimeter): 29.87 inches Hg (1011.6 mb)
[Sea-level pressure: 1011.5 mb]
Winds: from the WSW (250 degrees) at 7 MPH (6 knots; 3.1 m/s)
Visibility: 10 or more miles (16+ km)
Ceiling: 1600 feet AGL
Clouds: overcast cloud deck at 1600 feet AGL
Weather: no significant weather observed at this time

METAR text: KLAX 170253Z 26008KT 10SM OVC017 18/13 A2987 RMK AO2 SLP112 T01780133 53003
Conditions at: KLAX (LOS ANGELES , CA, US) observed 0253 UTC 17 June 2019
Temperature: 17.8°C (64°F)
Dewpoint: 13.3°C (56°F) [RH = 75%]
Pressure (altimeter): 29.87 inches Hg (1011.6 mb)
[Sea-level pressure: 1011.2 mb]
Winds: from the W (260 degrees) at 9 MPH (8 knots; 4.1 m/s)
Visibility: 10 or more miles (16+ km)
Ceiling: 1700 feet AGL
Clouds: overcast cloud deck at 1700 feet AGL
Weather: no significant weather observed at this time

METAR text: KLAX 170153Z 26009KT 10SM OVC018 18/14 A2986 RMK AO2 SLP108 T01830139
Conditions at: KLAX (LOS ANGELES , CA, US) observed 0153 UTC 17 June 2019
Temperature: 18.3°C (65°F)
Dewpoint: 13.9°C (57°F) [RH = 76%]
Pressure (altimeter): 29.86 inches Hg (1011.3 mb)
[Sea-level pressure: 1010.8 mb]
Winds: from the W (260 degrees) at 10 MPH (9 knots; 4.6 m/s)
Visibility: 10 or more miles (16+ km)
Ceiling: 1800 feet AGL
Clouds: overcast cloud deck at 1800 feet AGL
Weather: no significant weather observed at this time

METAR text: KLAX 170053Z 27012KT 10SM OVC018 19/14 A2986 RMK AO2 SLP108 T01890144
Conditions at: KLAX (LOS ANGELES , CA, US) observed 0053 UTC 17 June 2019
Temperature: 18.9°C (66°F)
Dewpoint: 14.4°C (58°F) [RH = 75%]
Pressure (altimeter): 29.86 inches Hg (1011.3 mb)
[Sea-level pressure: 1010.8 mb]
Winds: from the W (270 degrees) at 14 MPH (12 knots; 6.2 m/s)
Visibility: 10 or more miles (16+ km)
Ceiling: 1800 feet AGL
Clouds: overcast cloud deck at 1800 feet AGL
Weather: no significant weather observed at this time

METAR text: KLAX 170043Z 27015KT 10SM FEW013 OVC018 19/14 A2985 RMK AO2 T01890144
Conditions at: KLAX (LOS ANGELES , CA, US) observed 0043 UTC 17 June 2019
Temperature: 18.9°C (66°F)
Dewpoint: 14.4°C (58°F) [RH = 75%]
Pressure (altimeter): 29.85 inches Hg (1010.9 mb)
Winds: from the W (270 degrees) at 17 MPH (15 knots; 7.7 m/s)
Visibility: 10 or more miles (16+ km)
Ceiling: 1800 feet AGL
Clouds: few clouds at 1300 feet AGL
overcast cloud deck at 1800 feet AGL
Weather: no significant weather observed at this time

METAR text: KLAX 162353Z 27014KT 10SM BKN011 19/15 A2986 RMK AO2 SLP108 T01890150 10211 20178 56010
Conditions at: KLAX (LOS ANGELES , CA, US) observed 2353 UTC 16 June 2019
Temperature: 18.9°C (66°F)
Dewpoint: 15.0°C (59°F) [RH = 78%]
Pressure (altimeter): 29.86 inches Hg (1011.3 mb)
[Sea-level pressure: 1010.8 mb]
Winds: from the W (270 degrees) at 16 MPH (14 knots; 7.2 m/s)
Visibility: 10 or more miles (16+ km)
Ceiling: 1100 feet AGL
Clouds: broken clouds at 1100 feet AGL
Weather: no significant weather observed at this time

METAR text: KLAX 162329Z 26013KT 10SM BKN013 BKN021 19/15 A2986 RMK AO2 T01940150
Conditions at: KLAX (LOS ANGELES , CA, US) observed 2329 UTC 16 June 2019
Temperature: 19.4°C (67°F)
Dewpoint: 15.0°C (59°F) [RH = 76%]
Pressure (altimeter): 29.86 inches Hg (1011.3 mb)
Winds: from the W (260 degrees) at 15 MPH (13 knots; 6.7 m/s)
Visibility: 10 or more miles (16+ km)
Ceiling: 1300 feet AGL
Clouds: broken clouds at 1300 feet AGL
broken clouds at 2100 feet AGL
Weather: no significant weather observed at this time

METAR text: KLAX 162312Z 25013KT 10SM FEW012 BKN021 21/15 A2986 RMK AO2 T02060150
Conditions at: KLAX (LOS ANGELES , CA, US) observed 2312 UTC 16 June 2019
Temperature: 20.6°C (69°F)
Dewpoint: 15.0°C (59°F) [RH = 70%]
Pressure (altimeter): 29.86 inches Hg (1011.3 mb)
Winds: from the WSW (250 degrees) at 15 MPH (13 knots; 6.7 m/s)
Visibility: 10 or more miles (16+ km)
Ceiling: 2100 feet AGL
Clouds: few clouds at 1200 feet AGL
broken clouds at 2100 feet AGL
Weather: no significant weather observed at this time

METAR text: KLAX 162253Z 26011KT 10SM SCT023 SCT250 21/15 A2986 RMK AO2 SLP110 T02110150
Conditions at: KLAX (LOS ANGELES , CA, US) observed 2253 UTC 16 June 2019
Temperature: 21.1°C (70°F)
Dewpoint: 15.0°C (59°F) [RH = 68%]
Pressure (altimeter): 29.86 inches Hg (1011.3 mb)
[Sea-level pressure: 1011.0 mb]
Winds: from the W (260 degrees) at 13 MPH (11 knots; 5.7 m/s)
Visibility: 10 or more miles (16+ km)
Ceiling: at least 12,000 feet AGL
Clouds: scattered clouds at 2300 feet AGL
scattered clouds at 25000 feet AGL
Weather: no significant weather observed at this time

METAR text: KLAX 162220Z 25010KT 10SM SCT024 21/14 A2987 RMK AO2 T02060144
Conditions at: KLAX (LOS ANGELES , CA, US) observed 2220 UTC 16 June 2019
Temperature: 20.6°C (69°F)
Dewpoint: 14.4°C (58°F) [RH = 68%]
Pressure (altimeter): 29.87 inches Hg (1011.6 mb)
Winds: from the WSW (250 degrees) at 12 MPH (10 knots; 5.1 m/s)
Visibility: 10 or more miles (16+ km)
Ceiling: at least 12,000 feet AGL
Clouds: scattered clouds at 2400 feet AGL
Weather: no significant weather observed at this time

METAR text: KLAX 162153Z 25010KT 10SM FEW016 OVC024 21/14 A2988 RMK AO2 SLP115 T02060144
Conditions at: KLAX (LOS ANGELES , CA, US) observed 2153 UTC 16 June 2019
Temperature: 20.6°C (69°F)
Dewpoint: 14.4°C (58°F) [RH = 68%]
Pressure (altimeter): 29.88 inches Hg (1011.9 mb)
[Sea-level pressure: 1011.5 mb]
Winds: from the WSW (250 degrees) at 12 MPH (10 knots; 5.1 m/s)
Visibility: 10 or more miles (16+ km)
Ceiling: 2400 feet AGL
Clouds: few clouds at 1600 feet AGL
overcast cloud deck at 2400 feet AGL
Weather: no significant weather observed at this time

METAR text: KLAX 162053Z 27009KT 10SM FEW016 OVC024 20/14 A2989 RMK AO2 SLP119 T02000144 58004
Conditions at: KLAX (LOS ANGELES , CA, US) observed 2053 UTC 16 June 2019
Temperature: 20.0°C (68°F)
Dewpoint: 14.4°C (58°F) [RH = 70%]
Pressure (altimeter): 29.89 inches Hg (1012.3 mb)
[Sea-level pressure: 1011.9 mb]
Winds: from the W (270 degrees) at 10 MPH (9 knots; 4.6 m/s)
Visibility: 10 or more miles (16+ km)
Ceiling: 2400 feet AGL
Clouds: few clouds at 1600 feet AGL
overcast cloud deck at 2400 feet AGL
Weather: no significant weather observed at this time

METAR text: KLAX 162008Z 25009KT 10SM FEW011 BKN015 OVC022 19/14 A2990 RMK AO2 T01890144
Conditions at: KLAX (LOS ANGELES , CA, US) observed 2008 UTC 16 June 2019
Temperature: 18.9°C (66°F)
Dewpoint: 14.4°C (58°F) [RH = 75%]
Pressure (altimeter): 29.90 inches Hg (1012.6 mb)
Winds: from the WSW (250 degrees) at 10 MPH (9 knots; 4.6 m/s)
Visibility: 10 or more miles (16+ km)
Ceiling: 1500 feet AGL
Clouds: few clouds at 1100 feet AGL
broken clouds at 1500 feet AGL
overcast cloud deck at 2200 feet AGL
Weather: no significant weather observed at this time

METAR text: KLAX 161953Z 26010KT 10SM FEW011 BKN014 OVC022 19/14 A2990 RMK AO2 SLP123 T01940144
Conditions at: KLAX (LOS ANGELES , CA, US) observed 1953 UTC 16 June 2019
Temperature: 19.4°C (67°F)
Dewpoint: 14.4°C (58°F) [RH = 73%]
Pressure (altimeter): 29.90 inches Hg (1012.6 mb)
[Sea-level pressure: 1012.3 mb]
Winds: from the W (260 degrees) at 12 MPH (10 knots; 5.1 m/s)
Visibility: 10 or more miles (16+ km)
Ceiling: 1400 feet AGL
Clouds: few clouds at 1100 feet AGL
broken clouds at 1400 feet AGL
overcast cloud deck at 2200 feet AGL
Weather: no significant weather observed at this time

METAR text: KLAX 161853Z 22004KT 10SM SCT011 OVC014 18/15 A2991 RMK AO2 SLP125 T01830150
Conditions at: KLAX (LOS ANGELES , CA, US) observed 1853 UTC 16 June 2019
Temperature: 18.3°C (65°F)
Dewpoint: 15.0°C (59°F) [RH = 81%]
Pressure (altimeter): 29.91 inches Hg (1013.0 mb)
[Sea-level pressure: 1012.5 mb]
Winds: from the SW (220 degrees) at 5 MPH (4 knots; 2.1 m/s)
Visibility: 10 or more miles (16+ km)
Ceiling: 1400 feet AGL
Clouds: scattered clouds at 1100 feet AGL
overcast cloud deck at 1400 feet AGL
Weather: no significant weather observed at this time

METAR text: KLAX 161753Z 24007KT 10SM SCT011 OVC014 18/15 A2990 RMK AO2 SLP123 60000 T01830150 10183 20172 50002
Conditions at: KLAX (LOS ANGELES , CA, US) observed 1753 UTC 16 June 2019
Temperature: 18.3°C (65°F)
Dewpoint: 15.0°C (59°F) [RH = 81%]
Pressure (altimeter): 29.90 inches Hg (1012.6 mb)
[Sea-level pressure: 1012.3 mb]
Winds: from the WSW (240 degrees) at 8 MPH (7 knots; 3.6 m/s)
Visibility: 10 or more miles (16+ km)
Ceiling: 1400 feet AGL
Clouds: scattered clouds at 1100 feet AGL
overcast cloud deck at 1400 feet AGL
Weather: no significant weather observed at this time

METAR text: KLAX 161727Z 26005KT 10SM BKN010 OVC014 18/15 A2990 RMK AO2 T01780150
Conditions at: KLAX (LOS ANGELES , CA, US) observed 1727 UTC 16 June 2019
Temperature: 17.8°C (64°F)
Dewpoint: 15.0°C (59°F) [RH = 84%]
Pressure (altimeter): 29.90 inches Hg (1012.6 mb)
Winds: from the W (260 degrees) at 6 MPH (5 knots; 2.6 m/s)
Visibility: 10 or more miles (16+ km)
Ceiling: 1000 feet AGL
Clouds: broken clouds at 1000 feet AGL
overcast cloud deck at 1400 feet AGL
Weather: no significant weather observed at this time

METAR text: KLAX 161653Z 27007KT 6SM BR BKN009 OVC012 17/15 A2990 RMK AO2 DZE41 SLP124 P0000 T01720150
Conditions at: KLAX (LOS ANGELES , CA, US) observed 1653 UTC 16 June 2019
Temperature: 17.2°C (63°F)
Dewpoint: 15.0°C (59°F) [RH = 87%]
Pressure (altimeter): 29.90 inches Hg (1012.6 mb)
[Sea-level pressure: 1012.4 mb]
Winds: from the W (270 degrees) at 8 MPH (7 knots; 3.6 m/s)
Visibility: 6 miles (10 km)
Ceiling: 900 feet AGL
Clouds: broken clouds at 900 feet AGL
overcast cloud deck at 1200 feet AGL
Weather: BR  (mist)

METAR text: KLAX 161553Z 26007KT 6SM -DZ BR BKN008 OVC013 17/15 A2990 RMK AO2 DZB26 SLP125 P0000 T01720150
Conditions at: KLAX (LOS ANGELES , CA, US) observed 1553 UTC 16 June 2019
Temperature: 17.2°C (63°F)
Dewpoint: 15.0°C (59°F) [RH = 87%]
Pressure (altimeter): 29.90 inches Hg (1012.6 mb)
[Sea-level pressure: 1012.5 mb]
Winds: from the W (260 degrees) at 8 MPH (7 knots; 3.6 m/s)
Visibility: 6 miles (10 km)
Ceiling: 800 feet AGL
Clouds: broken clouds at 800 feet AGL
overcast cloud deck at 1300 feet AGL
Weather: -DZ BR  (light drizzle, mist)

METAR text: KLAX 161453Z 27008KT 8SM BKN008 OVC013 17/15 A2989 RMK AO2 SLP122 T01720150 53007
Conditions at: KLAX (LOS ANGELES , CA, US) observed 1453 UTC 16 June 2019
Temperature: 17.2°C (63°F)
Dewpoint: 15.0°C (59°F) [RH = 87%]
Pressure (altimeter): 29.89 inches Hg (1012.3 mb)
[Sea-level pressure: 1012.2 mb]
Winds: from the W (270 degrees) at 9 MPH (8 knots; 4.1 m/s)
Visibility: 8 miles (13 km)
Ceiling: 800 feet AGL
Clouds: broken clouds at 800 feet AGL
overcast cloud deck at 1300 feet AGL
Weather: no significant weather observed at this time

METAR text: KLAX 161442Z 26009KT 6SM HZ BKN008 OVC013 17/14 A2989 RMK AO2 T01720144
Conditions at: KLAX (LOS ANGELES , CA, US) observed 1442 UTC 16 June 2019
Temperature: 17.2°C (63°F)
Dewpoint: 14.4°C (58°F) [RH = 84%]
Pressure (altimeter): 29.89 inches Hg (1012.3 mb)
Winds: from the W (260 degrees) at 10 MPH (9 knots; 4.6 m/s)
Visibility: 6 miles (10 km)
Ceiling: 800 feet AGL
Clouds: broken clouds at 800 feet AGL
overcast cloud deck at 1300 feet AGL
Weather: HZ  (haze)

METAR text: KLAX 161353Z VRB04KT 7SM OVC013 18/14 A2988 RMK AO2 SLP117 T01780144
Conditions at: KLAX (LOS ANGELES , CA, US) observed 1353 UTC 16 June 2019
Temperature: 17.8°C (64°F)
Dewpoint: 14.4°C (58°F) [RH = 80%]
Pressure (altimeter): 29.88 inches Hg (1011.9 mb)
[Sea-level pressure: 1011.7 mb]
Winds: variable direction winds at 5 MPH (4 knots; 2.1 m/s)
Visibility: 7 miles (11 km)
Ceiling: 1300 feet AGL
Clouds: overcast cloud deck at 1300 feet AGL
Weather: no significant weather observed at this time

METAR text: KLAX 161326Z 00000KT 8SM OVC014 18/14 A2988 RMK AO2 T01780139
Conditions at: KLAX (LOS ANGELES , CA, US) observed 1326 UTC 16 June 2019
Temperature: 17.8°C (64°F)
Dewpoint: 13.9°C (57°F) [RH = 78%]
Pressure (altimeter): 29.88 inches Hg (1011.9 mb)
Winds: calm
Visibility: 8 miles (13 km)
Ceiling: 1400 feet AGL
Clouds: overcast cloud deck at 1400 feet AGL
Weather: no significant weather observed at this time

METAR text: KLAX 161253Z VRB04KT 10SM OVC015 18/14 A2988 RMK AO2 SLP115 T01780139
Conditions at: KLAX (LOS ANGELES , CA, US) observed 1253 UTC 16 June 2019
Temperature: 17.8°C (64°F)
Dewpoint: 13.9°C (57°F) [RH = 78%]
Pressure (altimeter): 29.88 inches Hg (1011.9 mb)
[Sea-level pressure: 1011.5 mb]
Winds: variable direction winds at 5 MPH (4 knots; 2.1 m/s)
Visibility: 10 or more miles (16+ km)
Ceiling: 1500 feet AGL
Clouds: overcast cloud deck at 1500 feet AGL
Weather: no significant weather observed at this time

METAR text: KLAX 161153Z 34004KT 10SM OVC016 18/14 A2987 RMK AO2 SLP114 T01780139 10189 20172 56005
Conditions at: KLAX (LOS ANGELES , CA, US) observed 1153 UTC 16 June 2019
Temperature: 17.8°C (64°F)
Dewpoint: 13.9°C (57°F) [RH = 78%]
Pressure (altimeter): 29.87 inches Hg (1011.6 mb)
[Sea-level pressure: 1011.4 mb]
Winds: from the NNW (340 degrees) at 5 MPH (4 knots; 2.1 m/s)
Visibility: 10 or more miles (16+ km)
Ceiling: 1600 feet AGL
Clouds: overcast cloud deck at 1600 feet AGL
Weather: no significant weather observed at this time

METAR text: KLAX 161053Z 31005KT 10SM OVC015 18/13 A2988 RMK AO2 SLP115 T01780133
Conditions at: KLAX (LOS ANGELES , CA, US) observed 1053 UTC 16 June 2019
Temperature: 17.8°C (64°F)
Dewpoint: 13.3°C (56°F) [RH = 75%]
Pressure (altimeter): 29.88 inches Hg (1011.9 mb)
[Sea-level pressure: 1011.5 mb]
Winds: from the NW (310 degrees) at 6 MPH (5 knots; 2.6 m/s)
Visibility: 10 or more miles (16+ km)
Ceiling: 1500 feet AGL
Clouds: overcast cloud deck at 1500 feet AGL
Weather: no significant weather observed at this time

METAR text: KLAX 160953Z 30004KT 10SM OVC014 17/13 A2988 RMK AO2 SLP117 T01720133
Conditions at: KLAX (LOS ANGELES , CA, US) observed 0953 UTC 16 June 2019
Temperature: 17.2°C (63°F)
Dewpoint: 13.3°C (56°F) [RH = 78%]
Pressure (altimeter): 29.88 inches Hg (1011.9 mb)
[Sea-level pressure: 1011.7 mb]
Winds: from the WNW (300 degrees) at 5 MPH (4 knots; 2.1 m/s)
Visibility: 10 or more miles (16+ km)
Ceiling: 1400 feet AGL
Clouds: overcast cloud deck at 1400 feet AGL
Weather: no significant weather observed at this time

METAR text: KLAX 160921Z 32004KT 10SM OVC014 17/14 A2989 RMK AO2 T01720139
Conditions at: KLAX (LOS ANGELES , CA, US) observed 0921 UTC 16 June 2019
Temperature: 17.2°C (63°F)
Dewpoint: 13.9°C (57°F) [RH = 81%]
Pressure (altimeter): 29.89 inches Hg (1012.3 mb)
Winds: from the NW (320 degrees) at 5 MPH (4 knots; 2.1 m/s)
Visibility: 10 or more miles (16+ km)
Ceiling: 1400 feet AGL
Clouds: overcast cloud deck at 1400 feet AGL
Weather: no significant weather observed at this time

METAR text: KLAX 160853Z 32003KT 10SM OVC015 17/14 A2989 RMK AO2 SLP119 T01720139 58013
Conditions at: KLAX (LOS ANGELES , CA, US) observed 0853 UTC 16 June 2019
Temperature: 17.2°C (63°F)
Dewpoint: 13.9°C (57°F) [RH = 81%]
Pressure (altimeter): 29.89 inches Hg (1012.3 mb)
[Sea-level pressure: 1011.9 mb]
Winds: from the NW (320 degrees) at 3 MPH (3 knots; 1.5 m/s)
Visibility: 10 or more miles (16+ km)
Ceiling: 1500 feet AGL
Clouds: overcast cloud deck at 1500 feet AGL
Weather: no significant weather observed at this time

METAR text: KLAX 160753Z VRB06KT 10SM OVC015 18/14 A2991 RMK AO2 SLP125 T01830139 402220172
Conditions at: KLAX (LOS ANGELES , CA, US) observed 0753 UTC 16 June 2019
Temperature: 18.3°C (65°F)
Dewpoint: 13.9°C (57°F) [RH = 76%]
Pressure (altimeter): 29.91 inches Hg (1013.0 mb)
[Sea-level pressure: 1012.5 mb]
Winds: variable direction winds at 7 MPH (6 knots; 3.1 m/s)
Visibility: 10 or more miles (16+ km)
Ceiling: 1500 feet AGL
Clouds: overcast cloud deck at 1500 feet AGL
Weather: no significant weather observed at this time

METAR text: KLAX 160653Z 29006KT 10SM BKN015 18/13 A2992 RMK AO2 SLP128 T01780133
Conditions at: KLAX (LOS ANGELES , CA, US) observed 0653 UTC 16 June 2019
Temperature: 17.8°C (64°F)
Dewpoint: 13.3°C (56°F) [RH = 75%]
Pressure (altimeter): 29.92 inches Hg (1013.3 mb)
[Sea-level pressure: 1012.8 mb]
Winds: from the WNW (290 degrees) at 7 MPH (6 knots; 3.1 m/s)
Visibility: 10 or more miles (16+ km)
Ceiling: 1500 feet AGL
Clouds: broken clouds at 1500 feet AGL
Weather: no significant weather observed at this time

METAR text: KLAX 160553Z 29006KT 10SM BKN015 18/14 A2993 RMK AO2 SLP132 T01780139 10206 20172 50006
Conditions at: KLAX (LOS ANGELES , CA, US) observed 0553 UTC 16 June 2019
Temperature: 17.8°C (64°F)
Dewpoint: 13.9°C (57°F) [RH = 78%]
Pressure (altimeter): 29.93 inches Hg (1013.6 mb)
[Sea-level pressure: 1013.2 mb]
Winds: from the WNW (290 degrees) at 7 MPH (6 knots; 3.1 m/s)
Visibility: 10 or more miles (16+ km)
Ceiling: 1500 feet AGL
Clouds: broken clouds at 1500 feet AGL
Weather: no significant weather observed at this time

METAR text: KLAX 160453Z 27009KT 10SM FEW011 BKN018 18/14 A2993 RMK AO2 SLP133 T01780139
Conditions at: KLAX (LOS ANGELES , CA, US) observed 0453 UTC 16 June 2019
Temperature: 17.8°C (64°F)
Dewpoint: 13.9°C (57°F) [RH = 78%]
Pressure (altimeter): 29.93 inches Hg (1013.6 mb)
[Sea-level pressure: 1013.3 mb]
Winds: from the W (270 degrees) at 10 MPH (9 knots; 4.6 m/s)
Visibility: 10 or more miles (16+ km)
Ceiling: 1800 feet AGL
Clouds: few clouds at 1100 feet AGL
broken clouds at 1800 feet AGL
Weather: no significant weather observed at this time

METAR text: KLAX 160353Z 27010KT 10SM SCT011 17/14 A2992 RMK AO2 SLP129 T01720139
Conditions at: KLAX (LOS ANGELES , CA, US) observed 0353 UTC 16 June 2019
Temperature: 17.2°C (63°F)
Dewpoint: 13.9°C (57°F) [RH = 81%]
Pressure (altimeter): 29.92 inches Hg (1013.3 mb)
[Sea-level pressure: 1012.9 mb]
Winds: from the W (270 degrees) at 12 MPH (10 knots; 5.1 m/s)
Visibility: 10 or more miles (16+ km)
Ceiling: at least 12,000 feet AGL
Clouds: scattered clouds at 1100 feet AGL
Weather: no significant weather observed at this time

METAR text: KLAX 160253Z 27011KT 10SM FEW011 SCT280 18/14 A2991 RMK AO2 SLP126 T01780139 53001
Conditions at: KLAX (LOS ANGELES , CA, US) observed 0253 UTC 16 June 2019
Temperature: 17.8°C (64°F)
Dewpoint: 13.9°C (57°F) [RH = 78%]
Pressure (altimeter): 29.91 inches Hg (1013.0 mb)
[Sea-level pressure: 1012.6 mb]
Winds: from the W (270 degrees) at 13 MPH (11 knots; 5.7 m/s)
Visibility: 10 or more miles (16+ km)
Ceiling: at least 12,000 feet AGL
Clouds: few clouds at 1100 feet AGL
scattered clouds at 28000 feet AGL
Weather: no significant weather observed at this time

METAR text: KLAX 160153Z 26013KT 10SM FEW013 SCT280 19/14 A2990 RMK AO2 SLP122 T01890139
Conditions at: KLAX (LOS ANGELES , CA, US) observed 0153 UTC 16 June 2019
Temperature: 18.9°C (66°F)
Dewpoint: 13.9°C (57°F) [RH = 73%]
Pressure (altimeter): 29.90 inches Hg (1012.6 mb)
[Sea-level pressure: 1012.2 mb]
Winds: from the W (260 degrees) at 15 MPH (13 knots; 6.7 m/s)
Visibility: 10 or more miles (16+ km)
Ceiling: at least 12,000 feet AGL
Clouds: few clouds at 1300 feet AGL
scattered clouds at 28000 feet AGL
Weather: no significant weather observed at this time

METAR text: KLAX 160053Z 26015KT 10SM SCT014 BKN280 20/14 A2989 RMK AO2 SLP121 T02000139
Conditions at: KLAX (LOS ANGELES , CA, US) observed 0053 UTC 16 June 2019
Temperature: 20.0°C (68°F)
Dewpoint: 13.9°C (57°F) [RH = 68%]
Pressure (altimeter): 29.89 inches Hg (1012.3 mb)
[Sea-level pressure: 1012.1 mb]
Winds: from the W (260 degrees) at 17 MPH (15 knots; 7.7 m/s)
Visibility: 10 or more miles (16+ km)
Ceiling: 28000 feet AGL
Clouds: scattered clouds at 1400 feet AGL
broken clouds at 28000 feet AGL
Weather: no significant weather observed at this time

METAR text: KLAX 160016Z 26013KT 10SM SCT015 SCT280 21/14 A2990 RMK AO2 T02060139
Conditions at: KLAX (LOS ANGELES , CA, US) observed 0016 UTC 16 June 2019
Temperature: 20.6°C (69°F)
Dewpoint: 13.9°C (57°F) [RH = 65%]
Pressure (altimeter): 29.90 inches Hg (1012.6 mb)
Winds: from the W (260 degrees) at 15 MPH (13 knots; 6.7 m/s)
Visibility: 10 or more miles (16+ km)
Ceiling: at least 12,000 feet AGL
Clouds: scattered clouds at 1500 feet AGL
scattered clouds at 28000 feet AGL
Weather: no significant weather observed at this time

METAR text: KLAX 152353Z 27014KT 10SM BKN014 BKN280 21/14 A2990 RMK AO2 SLP125 T02060144 10222 20194 56012
Conditions at: KLAX (LOS ANGELES , CA, US) observed 2353 UTC 15 June 2019
Temperature: 20.6°C (69°F)
Dewpoint: 14.4°C (58°F) [RH = 68%]
Pressure (altimeter): 29.90 inches Hg (1012.6 mb)
[Sea-level pressure: 1012.5 mb]
Winds: from the W (270 degrees) at 16 MPH (14 knots; 7.2 m/s)
Visibility: 10 or more miles (16+ km)
Ceiling: 1400 feet AGL
Clouds: broken clouds at 1400 feet AGL
broken clouds at 28000 feet AGL
Weather: no significant weather observed at this time

METAR text: KLAX 152320Z 26013KT 10SM BKN014 BKN280 21/14 A2991 RMK AO2 T02060144
Conditions at: KLAX (LOS ANGELES , CA, US) observed 2320 UTC 15 June 2019
Temperature: 20.6°C (69°F)
Dewpoint: 14.4°C (58°F) [RH = 68%]
Pressure (altimeter): 29.91 inches Hg (1013.0 mb)
Winds: from the W (260 degrees) at 15 MPH (13 knots; 6.7 m/s)
Visibility: 10 or more miles (16+ km)
Ceiling: 1400 feet AGL
Clouds: broken clouds at 1400 feet AGL
broken clouds at 28000 feet AGL
Weather: no significant weather observed at this time

METAR text: KLAX 152253Z 26012KT 10SM SCT013 SCT280 21/15 A2991 RMK AO2 SLP128 T02060150
Conditions at: KLAX (LOS ANGELES , CA, US) observed 2253 UTC 15 June 2019
Temperature: 20.6°C (69°F)
Dewpoint: 15.0°C (59°F) [RH = 70%]
Pressure (altimeter): 29.91 inches Hg (1013.0 mb)
[Sea-level pressure: 1012.8 mb]
Winds: from the W (260 degrees) at 14 MPH (12 knots; 6.2 m/s)
Visibility: 10 or more miles (16+ km)
Ceiling: at least 12,000 feet AGL
Clouds: scattered clouds at 1300 feet AGL
scattered clouds at 28000 feet AGL
Weather: no significant weather observed at this time

Forecast for: KLAX (LOS ANGELES , CA, US)
Text: KLAX 170910Z 1709/1812 25005KT P6SM BKN012 OVC016
Forecast period: 0900 to 1100 UTC 17 June 2019
Forecast type: FROM: standard forecast or significant change
Winds: from the WSW (250 degrees) at 6 MPH (5 knots; 2.6 m/s)
Visibility: 6 or more miles 10+ km)
Ceiling: 1200 feet AGL
Clouds: broken clouds at 1200 feet AGL
overcast cloud deck at 1600 feet AGL
Weather: no significant weather forecast for this period
Text: FM171100 VRB03KT P6SM OVC014
Forecast period: 1100 to 2000 UTC 17 June 2019
Forecast type: FROM: standard forecast or significant change
Winds: variable direction winds at 3 MPH (3 knots; 1.5 m/s)
Visibility: 6 or more miles 10+ km)
Ceiling: 1400 feet AGL
Clouds: overcast cloud deck at 1400 feet AGL
Weather: no significant weather forecast for this period
Text: FM172000 26010KT P6SM BKN022
Forecast period: 2000 UTC 17 June 2019 to 0300 UTC 18 June 2019
Forecast type: FROM: standard forecast or significant change
Winds: from the W (260 degrees) at 12 MPH (10 knots; 5.1 m/s)
Visibility: 6 or more miles 10+ km)
Ceiling: 2200 feet AGL
Clouds: broken clouds at 2200 feet AGL
Weather: no significant weather forecast for this period
Text: FM180300 26008KT P6SM OVC018
Forecast period: 0300 to 0800 UTC 18 June 2019
Forecast type: FROM: standard forecast or significant change
Winds: from the W (260 degrees) at 9 MPH (8 knots; 4.1 m/s)
Visibility: 6 or more miles 10+ km)
Ceiling: 1800 feet AGL
Clouds: overcast cloud deck at 1800 feet AGL
Weather: no significant weather forecast for this period
Text: FM180800 VRB03KT P6SM OVC015
Forecast period: 0800 to 1200 UTC 18 June 2019
Forecast type: FROM: standard forecast or significant change
Winds: variable direction winds at 3 MPH (3 knots; 1.5 m/s)
Visibility: 6 or more miles 10+ km)
Ceiling: 1500 feet AGL
Clouds: overcast cloud deck at 1500 feet AGL
Weather: no significant weather forecast for this period